sensor_id;sensor_type;location;lat;lon;timestamp;temperature;humidity
42037;DHT22;30340;52.004;5.908;2023-04-25T00:01:22;8.30;89.70
42037;DHT22;30340;52.004;5.908;2023-04-25T00:03:48;8.20;89.70
42037;DHT22;30340;52.004;5.908;2023-04-25T00:06:13;8.20;89.90
42037;DHT22;30340;52.004;5.908;2023-04-25T00:08:40;8.20;89.90
42037;DHT22;30340;52.004;5.908;2023-04-25T00:11:05;8.20;89.90
42037;DHT22;30340;52.004;5.908;2023-04-25T00:13:31;8.10;89.80
42037;DHT22;30340;52.004;5.908;2023-04-25T00:15:57;8.10;89.80
42037;DHT22;30340;52.004;5.908;2023-04-25T00:18:23;8.10;89.70
42037;DHT22;30340;52.004;5.908;2023-04-25T00:20:49;8.00;89.70
42037;DHT22;30340;52.004;5.908;2023-04-25T00:23:15;8.00;89.80
42037;DHT22;30340;52.004;5.908;2023-04-25T00:25:47;8.00;89.80
42037;DHT22;30340;52.004;5.908;2023-04-25T00:28:13;7.90;89.70
42037;DHT22;30340;52.004;5.908;2023-04-25T00:30:39;7.90;89.70
42037;DHT22;30340;52.004;5.908;2023-04-25T00:33:05;7.90;89.60
42037;DHT22;30340;52.004;5.908;2023-04-25T00:35:31;7.90;89.60
42037;DHT22;30340;52.004;5.908;2023-04-25T00:37:57;7.90;89.40
42037;DHT22;30340;52.004;5.908;2023-04-25T00:40:22;7.90;89.40
42037;DHT22;30340;52.004;5.908;2023-04-25T00:42:49;7.90;89.30
42037;DHT22;30340;52.004;5.908;2023-04-25T00:45:17;7.90;89.20
42037;DHT22;30340;52.004;5.908;2023-04-25T00:47:43;7.90;89.10
42037;DHT22;30340;52.004;5.908;2023-04-25T00:50:09;7.90;89.20
42037;DHT22;30340;52.004;5.908;2023-04-25T00:52:35;7.90;89.00
42037;DHT22;30340;52.004;5.908;2023-04-25T00:55:01;7.90;89.00
42037;DHT22;30340;52.004;5.908;2023-04-25T00:57:27;8.00;89.10
42037;DHT22;30340;52.004;5.908;2023-04-25T00:59:54;8.00;89.00
42037;DHT22;30340;52.004;5.908;2023-04-25T01:02:20;8.00;88.90
42037;DHT22;30340;52.004;5.908;2023-04-25T01:04:46;8.00;88.80
42037;DHT22;30340;52.004;5.908;2023-04-25T01:07:12;8.00;88.60
42037;DHT22;30340;52.004;5.908;2023-04-25T01:09:38;8.00;88.60
42037;DHT22;30340;52.004;5.908;2023-04-25T01:12:04;7.90;88.80
42037;DHT22;30340;52.004;5.908;2023-04-25T01:14:30;7.90;88.80
42037;DHT22;30340;52.004;5.908;2023-04-25T01:16:56;7.80;88.80
42037;DHT22;30340;52.004;5.908;2023-04-25T01:19:21;7.80;88.90
42037;DHT22;30340;52.004;5.908;2023-04-25T01:21:47;7.80;88.90
42037;DHT22;30340;52.004;5.908;2023-04-25T01:24:13;7.90;88.90
42037;DHT22;30340;52.004;5.908;2023-04-25T01:26:40;7.90;88.80
42037;DHT22;30340;52.004;5.908;2023-04-25T01:29:10;7.90;88.80
42037;DHT22;30340;52.004;5.908;2023-04-25T01:31:36;7.80;88.80
42037;DHT22;30340;52.004;5.908;2023-04-25T01:34:03;7.80;88.90
42037;DHT22;30340;52.004;5.908;2023-04-25T01:36:28;7.80;88.90
42037;DHT22;30340;52.004;5.908;2023-04-25T01:38:54;7.70;88.80
42037;DHT22;30340;52.004;5.908;2023-04-25T01:41:20;7.80;89.00
42037;DHT22;30340;52.004;5.908;2023-04-25T01:43:48;7.80;89.00
42037;DHT22;30340;52.004;5.908;2023-04-25T01:46:14;7.80;89.00
42037;DHT22;30340;52.004;5.908;2023-04-25T01:48:39;7.80;88.90
42037;DHT22;30340;52.004;5.908;2023-04-25T01:51:05;7.80;88.90
42037;DHT22;30340;52.004;5.908;2023-04-25T01:53:31;7.80;88.70
42037;DHT22;30340;52.004;5.908;2023-04-25T01:55:57;7.90;88.70
42037;DHT22;30340;52.004;5.908;2023-04-25T01:58:22;7.80;88.50
42037;DHT22;30340;52.004;5.908;2023-04-25T02:00:48;7.80;88.40
42037;DHT22;30340;52.004;5.908;2023-04-25T02:03:13;7.80;89.00
42037;DHT22;30340;52.004;5.908;2023-04-25T02:05:39;7.80;88.50
42037;DHT22;30340;52.004;5.908;2023-04-25T02:08:06;7.80;88.50
42037;DHT22;30340;52.004;5.908;2023-04-25T02:10:33;7.80;88.40
42037;DHT22;30340;52.004;5.908;2023-04-25T02:12:58;7.70;88.40
42037;DHT22;30340;52.004;5.908;2023-04-25T02:15:24;7.80;88.40
42037;DHT22;30340;52.004;5.908;2023-04-25T02:17:50;7.70;88.40
42037;DHT22;30340;52.004;5.908;2023-04-25T02:20:18;7.70;88.50
42037;DHT22;30340;52.004;5.908;2023-04-25T02:22:45;7.70;88.50
42037;DHT22;30340;52.004;5.908;2023-04-25T02:25:11;7.70;88.50
42037;DHT22;30340;52.004;5.908;2023-04-25T02:27:37;7.70;88.50
42037;DHT22;30340;52.004;5.908;2023-04-25T02:30:03;7.70;88.40
42037;DHT22;30340;52.004;5.908;2023-04-25T02:32:30;7.70;88.40
42037;DHT22;30340;52.004;5.908;2023-04-25T02:34:55;7.70;88.30
42037;DHT22;30340;52.004;5.908;2023-04-25T02:37:23;7.80;88.20
42037;DHT22;30340;52.004;5.908;2023-04-25T02:39:49;7.70;88.20
42037;DHT22;30340;52.004;5.908;2023-04-25T02:42:15;7.70;88.10
42037;DHT22;30340;52.004;5.908;2023-04-25T02:44:41;7.70;88.10
42037;DHT22;30340;52.004;5.908;2023-04-25T02:47:06;7.60;88.00
42037;DHT22;30340;52.004;5.908;2023-04-25T02:49:32;7.60;88.00
42037;DHT22;30340;52.004;5.908;2023-04-25T02:51:57;7.60;88.00
42037;DHT22;30340;52.004;5.908;2023-04-25T02:54:23;7.50;87.90
42037;DHT22;30340;52.004;5.908;2023-04-25T02:56:48;7.50;87.90
42037;DHT22;30340;52.004;5.908;2023-04-25T02:59:14;7.50;88.00
42037;DHT22;30340;52.004;5.908;2023-04-25T03:01:39;7.40;87.90
42037;DHT22;30340;52.004;5.908;2023-04-25T03:04:05;7.40;87.80
42037;DHT22;30340;52.004;5.908;2023-04-25T03:06:30;7.40;87.90
42037;DHT22;30340;52.004;5.908;2023-04-25T03:08:56;7.30;87.80
42037;DHT22;30340;52.004;5.908;2023-04-25T03:11:21;7.30;87.90
42037;DHT22;30340;52.004;5.908;2023-04-25T03:13:47;7.30;87.90
42037;DHT22;30340;52.004;5.908;2023-04-25T03:16:12;7.30;88.00
42037;DHT22;30340;52.004;5.908;2023-04-25T03:18:38;7.20;87.90
42037;DHT22;30340;52.004;5.908;2023-04-25T03:21:03;7.20;87.80
42037;DHT22;30340;52.004;5.908;2023-04-25T03:23:29;7.20;87.70
42037;DHT22;30340;52.004;5.908;2023-04-25T03:25:55;7.10;87.70
42037;DHT22;30340;52.004;5.908;2023-04-25T03:28:21;7.20;87.80
42037;DHT22;30340;52.004;5.908;2023-04-25T03:30:47;7.10;87.80
42037;DHT22;30340;52.004;5.908;2023-04-25T03:33:12;7.10;88.40
42037;DHT22;30340;52.004;5.908;2023-04-25T03:35:38;7.10;87.70
42037;DHT22;30340;52.004;5.908;2023-04-25T03:38:04;7.10;87.70
42037;DHT22;30340;52.004;5.908;2023-04-25T03:40:29;7.10;87.70
42037;DHT22;30340;52.004;5.908;2023-04-25T03:42:55;7.00;87.60
42037;DHT22;30340;52.004;5.908;2023-04-25T03:45:20;7.00;87.60
42037;DHT22;30340;52.004;5.908;2023-04-25T03:47:46;7.00;87.50
42037;DHT22;30340;52.004;5.908;2023-04-25T03:50:11;7.00;87.40
42037;DHT22;30340;52.004;5.908;2023-04-25T03:52:37;7.10;87.40
42037;DHT22;30340;52.004;5.908;2023-04-25T03:55:03;7.10;87.30
42037;DHT22;30340;52.004;5.908;2023-04-25T03:57:29;7.10;87.30
42037;DHT22;30340;52.004;5.908;2023-04-25T03:59:55;7.00;87.20
42037;DHT22;30340;52.004;5.908;2023-04-25T04:02:21;7.00;87.30
42037;DHT22;30340;52.004;5.908;2023-04-25T04:04:47;7.00;87.40
42037;DHT22;30340;52.004;5.908;2023-04-25T04:07:13;6.90;87.30
42037;DHT22;30340;52.004;5.908;2023-04-25T04:09:38;6.90;87.40
42037;DHT22;30340;52.004;5.908;2023-04-25T04:12:04;6.90;87.40
42037;DHT22;30340;52.004;5.908;2023-04-25T04:14:30;6.80;87.40
42037;DHT22;30340;52.004;5.908;2023-04-25T04:16:55;6.80;87.40
42037;DHT22;30340;52.004;5.908;2023-04-25T04:19:21;6.80;87.40
42037;DHT22;30340;52.004;5.908;2023-04-25T04:21:46;6.80;87.40
42037;DHT22;30340;52.004;5.908;2023-04-25T04:24:12;6.70;87.40
42037;DHT22;30340;52.004;5.908;2023-04-25T04:26:37;6.60;87.40
42037;DHT22;30340;52.004;5.908;2023-04-25T04:29:04;6.60;87.40
42037;DHT22;30340;52.004;5.908;2023-04-25T04:31:29;6.60;87.50
42037;DHT22;30340;52.004;5.908;2023-04-25T04:33:55;6.60;87.70
42037;DHT22;30340;52.004;5.908;2023-04-25T04:36:21;6.60;87.70
42037;DHT22;30340;52.004;5.908;2023-04-25T04:38:48;6.60;87.70
42037;DHT22;30340;52.004;5.908;2023-04-25T04:41:14;6.60;87.70
42037;DHT22;30340;52.004;5.908;2023-04-25T04:43:39;6.50;87.50
42037;DHT22;30340;52.004;5.908;2023-04-25T04:46:05;6.60;87.50
42037;DHT22;30340;52.004;5.908;2023-04-25T04:48:33;6.60;87.50
42037;DHT22;30340;52.004;5.908;2023-04-25T04:51:00;6.60;87.60
42037;DHT22;30340;52.004;5.908;2023-04-25T04:53:26;6.70;87.50
42037;DHT22;30340;52.004;5.908;2023-04-25T04:55:51;6.70;87.40
42037;DHT22;30340;52.004;5.908;2023-04-25T04:58:17;6.70;87.40
42037;DHT22;30340;52.004;5.908;2023-04-25T05:00:42;6.70;87.40
42037;DHT22;30340;52.004;5.908;2023-04-25T05:03:08;6.70;87.50
42037;DHT22;30340;52.004;5.908;2023-04-25T05:05:34;6.70;87.50
42037;DHT22;30340;52.004;5.908;2023-04-25T05:07:59;6.60;87.40
42037;DHT22;30340;52.004;5.908;2023-04-25T05:10:25;6.60;87.50
42037;DHT22;30340;52.004;5.908;2023-04-25T05:12:51;6.60;87.50
42037;DHT22;30340;52.004;5.908;2023-04-25T05:15:17;6.60;87.30
42037;DHT22;30340;52.004;5.908;2023-04-25T05:17:42;6.60;87.40
42037;DHT22;30340;52.004;5.908;2023-04-25T05:20:08;6.70;87.40
42037;DHT22;30340;52.004;5.908;2023-04-25T05:22:34;6.70;87.30
42037;DHT22;30340;52.004;5.908;2023-04-25T05:25:00;6.70;87.20
42037;DHT22;30340;52.004;5.908;2023-04-25T05:27:26;6.80;87.30
42037;DHT22;30340;52.004;5.908;2023-04-25T05:29:51;6.80;87.20
42037;DHT22;30340;52.004;5.908;2023-04-25T05:32:18;6.90;87.10
42037;DHT22;30340;52.004;5.908;2023-04-25T05:34:43;7.00;87.00
42037;DHT22;30340;52.004;5.908;2023-04-25T05:37:09;7.00;86.90
42037;DHT22;30340;52.004;5.908;2023-04-25T05:39:34;7.00;86.80
42037;DHT22;30340;52.004;5.908;2023-04-25T05:42:00;7.10;86.70
42037;DHT22;30340;52.004;5.908;2023-04-25T05:44:26;7.10;86.70
42037;DHT22;30340;52.004;5.908;2023-04-25T05:46:52;7.10;86.50
42037;DHT22;30340;52.004;5.908;2023-04-25T05:49:17;7.20;86.50
42037;DHT22;30340;52.004;5.908;2023-04-25T05:51:43;7.20;86.30
42037;DHT22;30340;52.004;5.908;2023-04-25T05:54:08;7.30;86.20
42037;DHT22;30340;52.004;5.908;2023-04-25T05:56:35;7.40;86.20
42037;DHT22;30340;52.004;5.908;2023-04-25T05:59:00;7.50;86.20
42037;DHT22;30340;52.004;5.908;2023-04-25T06:01:26;8.20;85.40
42037;DHT22;30340;52.004;5.908;2023-04-25T06:03:51;8.30;83.90
42037;DHT22;30340;52.004;5.908;2023-04-25T06:06:18;8.10;83.50
42037;DHT22;30340;52.004;5.908;2023-04-25T06:08:43;7.90;83.80
42037;DHT22;30340;52.004;5.908;2023-04-25T06:11:09;7.90;84.30
42037;DHT22;30340;52.004;5.908;2023-04-25T06:13:34;7.80;84.40
42037;DHT22;30340;52.004;5.908;2023-04-25T06:16:00;7.90;84.70
42037;DHT22;30340;52.004;5.908;2023-04-25T06:18:25;7.90;84.60
42037;DHT22;30340;52.004;5.908;2023-04-25T06:20:51;8.10;84.40
42037;DHT22;30340;52.004;5.908;2023-04-25T06:23:17;8.20;84.20
42037;DHT22;30340;52.004;5.908;2023-04-25T06:25:42;8.40;84.40
42037;DHT22;30340;52.004;5.908;2023-04-25T06:28:08;8.60;83.00
42037;DHT22;30340;52.004;5.908;2023-04-25T06:30:33;8.70;82.60
42037;DHT22;30340;52.004;5.908;2023-04-25T06:32:59;8.70;82.50
42037;DHT22;30340;52.004;5.908;2023-04-25T06:35:24;8.70;82.50
42037;DHT22;30340;52.004;5.908;2023-04-25T06:37:50;8.70;82.70
42037;DHT22;30340;52.004;5.908;2023-04-25T06:40:15;8.70;82.70
42037;DHT22;30340;52.004;5.908;2023-04-25T06:42:42;8.70;82.70
42037;DHT22;30340;52.004;5.908;2023-04-25T06:45:08;8.80;82.70
42037;DHT22;30340;52.004;5.908;2023-04-25T06:47:34;9.00;82.40
42037;DHT22;30340;52.004;5.908;2023-04-25T06:49:59;9.00;82.20
42037;DHT22;30340;52.004;5.908;2023-04-25T06:52:25;9.00;81.90
42037;DHT22;30340;52.004;5.908;2023-04-25T06:54:50;9.00;81.80
42037;DHT22;30340;52.004;5.908;2023-04-25T06:57:16;9.00;81.60
42037;DHT22;30340;52.004;5.908;2023-04-25T06:59:42;9.00;81.40
42037;DHT22;30340;52.004;5.908;2023-04-25T07:02:07;9.00;81.60
42037;DHT22;30340;52.004;5.908;2023-04-25T07:04:33;8.90;81.50
42037;DHT22;30340;52.004;5.908;2023-04-25T07:06:58;8.80;81.80
42037;DHT22;30340;52.004;5.908;2023-04-25T07:09:26;8.80;82.10
42037;DHT22;30340;52.004;5.908;2023-04-25T07:11:51;9.20;82.20
42037;DHT22;30340;52.004;5.908;2023-04-25T07:14:17;10.00;81.00
42037;DHT22;30340;52.004;5.908;2023-04-25T07:16:42;11.80;76.50
42037;DHT22;30340;52.004;5.908;2023-04-25T07:19:08;13.70;71.10
42037;DHT22;30340;52.004;5.908;2023-04-25T07:21:34;14.70;67.00
42037;DHT22;30340;52.004;5.908;2023-04-25T07:23:59;15.70;64.30
42037;DHT22;30340;52.004;5.908;2023-04-25T07:26:25;16.50;61.90
42037;DHT22;30340;52.004;5.908;2023-04-25T07:28:51;17.20;59.70
42037;DHT22;30340;52.004;5.908;2023-04-25T07:31:19;17.30;58.40
42037;DHT22;30340;52.004;5.908;2023-04-25T07:33:45;17.70;57.50
42037;DHT22;30340;52.004;5.908;2023-04-25T07:36:11;17.40;56.60
42037;DHT22;30340;52.004;5.908;2023-04-25T07:38:38;15.70;58.00
42037;DHT22;30340;52.004;5.908;2023-04-25T07:41:04;14.30;61.40
42037;DHT22;30340;52.004;5.908;2023-04-25T07:43:29;13.30;64.30
42037;DHT22;30340;52.004;5.908;2023-04-25T07:45:56;12.70;66.50
42037;DHT22;30340;52.004;5.908;2023-04-25T07:48:22;12.20;67.90
42037;DHT22;30340;52.004;5.908;2023-04-25T07:50:47;11.80;68.80
42037;DHT22;30340;52.004;5.908;2023-04-25T07:53:13;11.50;69.90
42037;DHT22;30340;52.004;5.908;2023-04-25T07:55:38;11.30;70.40
42037;DHT22;30340;52.004;5.908;2023-04-25T07:58:06;11.10;70.70
42037;DHT22;30340;52.004;5.908;2023-04-25T08:00:32;11.00;70.60
42037;DHT22;30340;52.004;5.908;2023-04-25T08:02:57;11.10;70.80
42037;DHT22;30340;52.004;5.908;2023-04-25T08:05:23;11.40;70.00
42037;DHT22;30340;52.004;5.908;2023-04-25T08:07:48;11.30;68.80
42037;DHT22;30340;52.004;5.908;2023-04-25T08:10:14;11.20;68.90
42037;DHT22;30340;52.004;5.908;2023-04-25T08:12:40;12.40;68.30
42037;DHT22;30340;52.004;5.908;2023-04-25T08:15:06;13.20;65.40
42037;DHT22;30340;52.004;5.908;2023-04-25T08:17:31;13.60;63.90
42037;DHT22;30340;52.004;5.908;2023-04-25T08:19:57;13.50;63.00
42037;DHT22;30340;52.004;5.908;2023-04-25T08:22:22;13.40;63.00
42037;DHT22;30340;52.004;5.908;2023-04-25T08:24:48;13.40;63.20
42037;DHT22;30340;52.004;5.908;2023-04-25T08:27:14;13.10;62.60
42037;DHT22;30340;52.004;5.908;2023-04-25T08:29:39;12.90;62.00
42037;DHT22;30340;52.004;5.908;2023-04-25T08:32:05;12.70;61.70
42037;DHT22;30340;52.004;5.908;2023-04-25T08:34:30;12.60;61.20
42037;DHT22;30340;52.004;5.908;2023-04-25T08:36:56;12.30;60.90
42037;DHT22;30340;52.004;5.908;2023-04-25T08:39:21;11.90;60.90
42037;DHT22;30340;52.004;5.908;2023-04-25T08:41:47;11.70;61.60
42037;DHT22;30340;52.004;5.908;2023-04-25T08:44:13;11.50;62.00
42037;DHT22;30340;52.004;5.908;2023-04-25T08:46:41;11.20;61.50
42037;DHT22;30340;52.004;5.908;2023-04-25T08:49:07;11.00;62.00
42037;DHT22;30340;52.004;5.908;2023-04-25T08:51:44;10.80;61.90
42037;DHT22;30340;52.004;5.908;2023-04-25T08:54:13;10.70;62.30
42037;DHT22;30340;52.004;5.908;2023-04-25T08:56:41;10.70;62.80
42037;DHT22;30340;52.004;5.908;2023-04-25T08:59:06;10.70;62.90
42037;DHT22;30340;52.004;5.908;2023-04-25T09:01:34;10.60;63.40
42037;DHT22;30340;52.004;5.908;2023-04-25T09:04:00;10.50;64.30
42037;DHT22;30340;52.004;5.908;2023-04-25T09:06:28;10.50;64.70
42037;DHT22;30340;52.004;5.908;2023-04-25T09:08:54;10.50;65.00
42037;DHT22;30340;52.004;5.908;2023-04-25T09:11:19;10.50;65.40
42037;DHT22;30340;52.004;5.908;2023-04-25T09:13:45;10.60;65.60
42037;DHT22;30340;52.004;5.908;2023-04-25T09:16:11;10.60;65.80
42037;DHT22;30340;52.004;5.908;2023-04-25T09:18:37;10.70;65.90
42037;DHT22;30340;52.004;5.908;2023-04-25T09:21:07;10.70;65.80
42037;DHT22;30340;52.004;5.908;2023-04-25T09:23:45;10.70;65.10
42037;DHT22;30340;52.004;5.908;2023-04-25T09:26:14;10.70;63.90
42037;DHT22;30340;52.004;5.908;2023-04-25T09:28:40;10.70;63.20
42037;DHT22;30340;52.004;5.908;2023-04-25T09:31:10;10.80;63.20
42037;DHT22;30340;52.004;5.908;2023-04-25T09:33:36;10.70;62.20
42037;DHT22;30340;52.004;5.908;2023-04-25T09:36:09;10.70;62.90
42037;DHT22;30340;52.004;5.908;2023-04-25T09:38:46;10.80;62.90
42037;DHT22;30340;52.004;5.908;2023-04-25T09:41:12;11.00;62.80
42037;DHT22;30340;52.004;5.908;2023-04-25T09:43:38;11.10;62.40
42037;DHT22;30340;52.004;5.908;2023-04-25T09:46:10;11.30;62.10
42037;DHT22;30340;52.004;5.908;2023-04-25T09:48:37;11.40;61.10
42037;DHT22;30340;52.004;5.908;2023-04-25T09:51:09;11.60;61.30
42037;DHT22;30340;52.004;5.908;2023-04-25T09:53:37;11.80;61.00
42037;DHT22;30340;52.004;5.908;2023-04-25T09:56:08;11.90;60.10
42037;DHT22;30340;52.004;5.908;2023-04-25T09:58:35;12.00;60.00
42037;DHT22;30340;52.004;5.908;2023-04-25T10:01:03;12.10;59.00
42037;DHT22;30340;52.004;5.908;2023-04-25T10:03:33;12.10;57.80
42037;DHT22;30340;52.004;5.908;2023-04-25T10:06:01;12.30;56.90
42037;DHT22;30340;52.004;5.908;2023-04-25T10:08:35;12.30;56.00
42037;DHT22;30340;52.004;5.908;2023-04-25T10:11:03;12.30;55.00
42037;DHT22;30340;52.004;5.908;2023-04-25T10:13:32;12.10;54.30
42037;DHT22;30340;52.004;5.908;2023-04-25T10:15:59;12.00;54.60
42037;DHT22;30340;52.004;5.908;2023-04-25T10:18:26;11.90;54.60
42037;DHT22;30340;52.004;5.908;2023-04-25T10:20:55;11.90;55.30
42037;DHT22;30340;52.004;5.908;2023-04-25T10:23:22;11.90;55.10
42037;DHT22;30340;52.004;5.908;2023-04-25T10:25:49;11.80;55.00
42037;DHT22;30340;52.004;5.908;2023-04-25T10:28:15;11.90;55.80
42037;DHT22;30340;52.004;5.908;2023-04-25T10:31:02;12.10;56.00
42037;DHT22;30340;52.004;5.908;2023-04-25T10:33:38;12.10;55.10
42037;DHT22;30340;52.004;5.908;2023-04-25T10:36:12;11.90;54.30
42037;DHT22;30340;52.004;5.908;2023-04-25T10:38:39;11.70;54.30
42037;DHT22;30340;52.004;5.908;2023-04-25T10:41:09;11.40;55.70
42037;DHT22;30340;52.004;5.908;2023-04-25T10:43:43;11.20;57.70
42037;DHT22;30340;52.004;5.908;2023-04-25T10:46:22;11.00;59.40
42037;DHT22;30340;52.004;5.908;2023-04-25T10:52:26;10.60;62.40
42037;DHT22;30340;52.004;5.908;2023-04-25T10:54:54;10.60;62.70
42037;DHT22;30340;52.004;5.908;2023-04-25T10:57:27;10.70;63.30
42037;DHT22;30340;52.004;5.908;2023-04-25T10:59:58;10.80;63.40
42037;DHT22;30340;52.004;5.908;2023-04-25T11:02:26;10.80;63.30
42037;DHT22;30340;52.004;5.908;2023-04-25T11:04:53;10.90;63.20
42037;DHT22;30340;52.004;5.908;2023-04-25T11:07:29;11.00;62.50
42037;DHT22;30340;52.004;5.908;2023-04-25T11:09:58;11.10;62.20
42037;DHT22;30340;52.004;5.908;2023-04-25T11:12:26;11.20;62.20
42037;DHT22;30340;52.004;5.908;2023-04-25T11:14:59;11.50;62.30
42037;DHT22;30340;52.004;5.908;2023-04-25T11:17:25;11.60;61.60
42037;DHT22;30340;52.004;5.908;2023-04-25T11:19:50;11.70;61.30
42037;DHT22;30340;52.004;5.908;2023-04-25T11:22:16;11.70;60.90
42037;DHT22;30340;52.004;5.908;2023-04-25T11:24:42;11.80;60.70
42037;DHT22;30340;52.004;5.908;2023-04-25T11:27:08;11.80;59.60
42037;DHT22;30340;52.004;5.908;2023-04-25T11:29:34;11.80;59.00
42037;DHT22;30340;52.004;5.908;2023-04-25T11:32:00;12.00;58.70
42037;DHT22;30340;52.004;5.908;2023-04-25T11:34:31;12.30;58.10
42037;DHT22;30340;52.004;5.908;2023-04-25T11:36:58;12.30;54.40
42037;DHT22;30340;52.004;5.908;2023-04-25T11:39:25;12.20;52.80
42037;DHT22;30340;52.004;5.908;2023-04-25T11:41:52;12.30;52.30
42037;DHT22;30340;52.004;5.908;2023-04-25T11:44:18;12.30;51.50
42037;DHT22;30340;52.004;5.908;2023-04-25T11:46:45;12.50;52.40
42037;DHT22;30340;52.004;5.908;2023-04-25T11:49:11;12.80;52.60
42037;DHT22;30340;52.004;5.908;2023-04-25T11:51:44;12.90;52.80
42037;DHT22;30340;52.004;5.908;2023-04-25T11:54:10;12.90;52.20
42037;DHT22;30340;52.004;5.908;2023-04-25T11:56:37;12.90;51.70
42037;DHT22;30340;52.004;5.908;2023-04-25T11:59:04;13.00;51.50
42037;DHT22;30340;52.004;5.908;2023-04-25T12:01:32;13.10;51.10
42037;DHT22;30340;52.004;5.908;2023-04-25T12:04:09;13.10;51.30
42037;DHT22;30340;52.004;5.908;2023-04-25T12:06:39;13.10;50.90
42037;DHT22;30340;52.004;5.908;2023-04-25T12:09:08;13.00;50.10
42037;DHT22;30340;52.004;5.908;2023-04-25T12:11:44;12.90;50.30
42037;DHT22;30340;52.004;5.908;2023-04-25T12:14:11;12.60;52.00
42037;DHT22;30340;52.004;5.908;2023-04-25T12:16:44;12.40;53.00
42037;DHT22;30340;52.004;5.908;2023-04-25T12:19:14;12.10;53.90
42037;DHT22;30340;52.004;5.908;2023-04-25T12:21:40;11.70;54.90
42037;DHT22;30340;52.004;5.908;2023-04-25T12:24:15;11.50;55.70
42037;DHT22;30340;52.004;5.908;2023-04-25T12:26:48;11.20;56.40
42037;DHT22;30340;52.004;5.908;2023-04-25T12:29:22;11.10;57.10
42037;DHT22;30340;52.004;5.908;2023-04-25T12:31:49;11.10;57.70
42037;DHT22;30340;52.004;5.908;2023-04-25T12:34:15;11.10;57.80
42037;DHT22;30340;52.004;5.908;2023-04-25T12:36:41;11.00;57.50
42037;DHT22;30340;52.004;5.908;2023-04-25T12:39:07;11.10;57.60
42037;DHT22;30340;52.004;5.908;2023-04-25T12:41:33;11.10;57.40
42037;DHT22;30340;52.004;5.908;2023-04-25T12:43:58;11.10;57.30
42037;DHT22;30340;52.004;5.908;2023-04-25T12:46:24;11.20;57.50
42037;DHT22;30340;52.004;5.908;2023-04-25T12:48:50;11.20;57.60
42037;DHT22;30340;52.004;5.908;2023-04-25T12:51:15;11.40;57.80
42037;DHT22;30340;52.004;5.908;2023-04-25T12:53:41;11.50;57.60
42037;DHT22;30340;52.004;5.908;2023-04-25T12:56:08;11.70;57.70
42037;DHT22;30340;52.004;5.908;2023-04-25T12:58:33;11.90;57.10
42037;DHT22;30340;52.004;5.908;2023-04-25T13:00:59;12.00;56.90
42037;DHT22;30340;52.004;5.908;2023-04-25T13:03:25;12.10;56.70
42037;DHT22;30340;52.004;5.908;2023-04-25T13:05:51;12.40;56.60
42037;DHT22;30340;52.004;5.908;2023-04-25T13:08:18;12.60;56.00
42037;DHT22;30340;52.004;5.908;2023-04-25T13:10:44;12.90;55.40
42037;DHT22;30340;52.004;5.908;2023-04-25T13:13:09;13.20;54.30
42037;DHT22;30340;52.004;5.908;2023-04-25T13:15:35;13.50;54.00
42037;DHT22;30340;52.004;5.908;2023-04-25T13:18:02;13.60;53.50
42037;DHT22;30340;52.004;5.908;2023-04-25T13:20:28;13.70;53.40
42037;DHT22;30340;52.004;5.908;2023-04-25T13:22:54;13.70;52.30
42037;DHT22;30340;52.004;5.908;2023-04-25T13:25:20;13.40;50.90
42037;DHT22;30340;52.004;5.908;2023-04-25T13:27:47;13.30;50.40
42037;DHT22;30340;52.004;5.908;2023-04-25T13:30:12;13.40;47.80
42037;DHT22;30340;52.004;5.908;2023-04-25T13:32:38;13.40;47.50
42037;DHT22;30340;52.004;5.908;2023-04-25T13:35:06;13.40;47.90
42037;DHT22;30340;52.004;5.908;2023-04-25T13:37:32;13.30;48.00
42037;DHT22;30340;52.004;5.908;2023-04-25T13:40:04;13.10;48.50
42037;DHT22;30340;52.004;5.908;2023-04-25T13:42:31;12.90;49.20
42037;DHT22;30340;52.004;5.908;2023-04-25T13:44:56;12.90;49.70
42037;DHT22;30340;52.004;5.908;2023-04-25T13:47:22;13.10;49.50
42037;DHT22;30340;52.004;5.908;2023-04-25T13:49:48;13.40;48.50
42037;DHT22;30340;52.004;5.908;2023-04-25T13:52:14;13.70;47.90
42037;DHT22;30340;52.004;5.908;2023-04-25T13:54:40;13.80;47.80
42037;DHT22;30340;52.004;5.908;2023-04-25T13:57:06;13.90;48.20
42037;DHT22;30340;52.004;5.908;2023-04-25T13:59:32;13.90;48.40
42037;DHT22;30340;52.004;5.908;2023-04-25T14:01:58;13.80;47.80
42037;DHT22;30340;52.004;5.908;2023-04-25T14:04:23;13.70;48.10
42037;DHT22;30340;52.004;5.908;2023-04-25T14:06:49;13.60;46.10
42037;DHT22;30340;52.004;5.908;2023-04-25T14:09:15;13.70;46.60
42037;DHT22;30340;52.004;5.908;2023-04-25T14:11:41;13.50;47.90
42037;DHT22;30340;52.004;5.908;2023-04-25T14:14:06;13.20;47.90
42037;DHT22;30340;52.004;5.908;2023-04-25T14:16:32;13.10;48.70
42037;DHT22;30340;52.004;5.908;2023-04-25T14:18:58;12.80;48.70
42037;DHT22;30340;52.004;5.908;2023-04-25T14:21:24;12.60;49.10
42037;DHT22;30340;52.004;5.908;2023-04-25T14:23:49;12.50;50.00
42037;DHT22;30340;52.004;5.908;2023-04-25T14:26:15;12.40;50.40
42037;DHT22;30340;52.004;5.908;2023-04-25T14:28:41;12.20;50.40
42037;DHT22;30340;52.004;5.908;2023-04-25T14:31:07;12.20;49.60
42037;DHT22;30340;52.004;5.908;2023-04-25T14:33:32;12.20;49.70
42037;DHT22;30340;52.004;5.908;2023-04-25T14:35:58;12.20;49.90
42037;DHT22;30340;52.004;5.908;2023-04-25T14:38:24;12.30;50.10
42037;DHT22;30340;52.004;5.908;2023-04-25T14:40:51;12.30;50.00
42037;DHT22;30340;52.004;5.908;2023-04-25T14:43:16;12.40;49.90
42037;DHT22;30340;52.004;5.908;2023-04-25T14:45:42;12.60;49.30
42037;DHT22;30340;52.004;5.908;2023-04-25T14:48:07;12.80;49.00
42037;DHT22;30340;52.004;5.908;2023-04-25T14:50:33;13.00;48.50
42037;DHT22;30340;52.004;5.908;2023-04-25T14:52:59;13.00;47.90
42037;DHT22;30340;52.004;5.908;2023-04-25T14:55:26;13.00;48.20
42037;DHT22;30340;52.004;5.908;2023-04-25T14:57:53;12.90;48.30
42037;DHT22;30340;52.004;5.908;2023-04-25T15:00:19;12.70;48.50
42037;DHT22;30340;52.004;5.908;2023-04-25T15:02:46;12.50;49.50
42037;DHT22;30340;52.004;5.908;2023-04-25T15:05:12;12.30;50.70
42037;DHT22;30340;52.004;5.908;2023-04-25T15:07:39;12.20;50.70
42037;DHT22;30340;52.004;5.908;2023-04-25T15:10:06;12.00;50.50
42037;DHT22;30340;52.004;5.908;2023-04-25T15:12:36;12.00;50.70
42037;DHT22;30340;52.004;5.908;2023-04-25T15:15:03;12.10;50.30
42037;DHT22;30340;52.004;5.908;2023-04-25T15:17:28;12.30;49.50
42037;DHT22;30340;52.004;5.908;2023-04-25T15:19:56;12.40;49.00
42037;DHT22;30340;52.004;5.908;2023-04-25T15:22:22;12.40;48.90
42037;DHT22;30340;52.004;5.908;2023-04-25T15:24:47;12.30;49.30
42037;DHT22;30340;52.004;5.908;2023-04-25T15:27:13;12.40;49.80
42037;DHT22;30340;52.004;5.908;2023-04-25T15:29:39;12.30;50.00
42037;DHT22;30340;52.004;5.908;2023-04-25T15:32:05;12.20;50.50
42037;DHT22;30340;52.004;5.908;2023-04-25T15:34:31;12.10;51.20
42037;DHT22;30340;52.004;5.908;2023-04-25T15:36:56;11.80;51.90